Details From BGGH - Nuuk Godthab
To CYFB - Iqaluit
Flight Number -
Tags decoded
Created
Modified
Stats Distance 448 nm / 829 km
Max Altitude 0 ft / 0 m
Waypoints 5
Social Downloads 0
Likes 0
Share

Download

Looking for another format? Having issues loading an existing format? Contact us
Advertisement - Login to hide

Notes

Requested: BGGH KU CLAVY N898A MUSVA/N0437F380 DUTUM CYFB Unmatched points: MUSVA/N0437F380

Route

BGGH KU CLAVY DUTUM CYFB

ID Type Via Altitude (ft/m) Position (lat/lon) Dist (leg/tot) Name
O BGGH APT - 0 / 0 64.19090 / -51.67810 - / 0 nm Nuuk Godthab
KU NDB - 0 / 0 64.07000 / -52.01310 11 / 11 nm KOOK ISLANDS
CLAVY FIX - 0 / 0 64.23330 / -59.00000 183 / 194 nm
DUTUM FIX - 0 / 0 63.86670 / -67.00000 211 / 405 nm
O CYFB APT - 0 / 0 63.75660 / -68.55620 41 / 447 nm Iqaluit

Altitude Profile

Advertisement - Login to hide

Weather


0- 5 10 15 20 25 30 35+ Temperature / °C

Clouds and Precipitation
Forecast for 2022-05-27 12:00 UTC. Updated 5 hours ago

Ground ~20,000 ft ~40,000 ft Winds

BGGH

Details ICAO BGGH (GOH)
Name Nuuk Godthab
Region Greenland
Timezone America/Godthab (UTC-2.0)
Stats Elevation 283 ft / 86 m (AMSL)
Location 64.190900° -51.678100°
Runways 1
Magnetic Variation 25.432° W

METAR

BGGH 271350Z 18013KT 9999 FEW012 BKN020 00/M02 Q1018

Decode

TAF

Not found

Departure Runways

ID Width Length Bearing (true/mag) Surface Threshold Overrun Markings Lighting
05 98 ft / 30 m 3,113 ft / 949 m 18.37° / 43.80° ASPHALT 0 ft / 0 m 0 ft / 0 m APP EDGE THRESHOLD
23 98 ft / 30 m 3,113 ft / 949 m 198.37° / 223.81° ASPHALT 0 ft / 0 m 0 ft / 0 m APP EDGE THRESHOLD ALSF-I

CYFB

Details ICAO CYFB (YFB)
Name Iqaluit
Region Canada
Timezone America/Iqaluit (UTC-4.0)
Stats Elevation 110 ft / 34 m (AMSL)
Location 63.756600° -68.556200°
Runways 1
Magnetic Variation 25.846° W

METAR

CYFB 271400Z 18007KT 160V230 30SM FEW015 FEW030 BKN073 M03/M08 A3007 RMK SC1SC1AC5 SLP187

Decode

TAF

TAF TAF CYFB 271140Z 2712/2812 VRB03KT P6SM -SN BKN030 OVC060 TEMPO 2712/2716 2SM -SN VV015 FM271600 24008KT P6SM SCT025 BKN040 TEMPO 2716/2803 3SM -SN BKN020 FM280300 14006KT P6SM SCT030 BKN070 FM280600 11006KT P6SM SCT015 TEMPO 2806/2812 BKN015 RMK NXT FCST BY 271800Z

Decode

Destination Runways

ID Width Length Bearing (true/mag) Surface Threshold Overrun Markings Lighting
16 197 ft / 60 m 8,571 ft / 2,612 m 135.65° / 161.50° ASPHALT 0 ft / 0 m 200 ft / 61 m PREC-APP CENTERLINE EDGE THRESHOLD REIL-UNI
34 197 ft / 60 m 8,571 ft / 2,612 m 315.69° / 341.53° ASPHALT 0 ft / 0 m 207 ft / 63 m PREC-APP CENTERLINE EDGE THRESHOLD MALSF

Approach Navaids

Runway Type Ident Frequency Range Bearing (true/mag) Slope Elevation
34 LOC-ILS IFB 109.90 MHz 18 nm / 33 km 315.67° / 341.52 ° - 110 ft / 34 m (AMSL)
34 GS IFB 109.90 MHz 10 nm / 19 km 315.67° / 341.52 ° 2.50° 110 ft / 34 m (AMSL)

Popular Alternatives